Time;durP1;ratioP1;P1;durP2;ratioP2;P2;SDS_P1;SDS_P2;PMS_P1;PMS_P2;Temp;Humidity;BMP_temperature;BMP_pressure;BME280_temperature;BME280_humidity;BME280_pressure;Samples;Min_cycle;Max_cycle;Signal;HPM_P1;HPM_P2
2021/04/23 00:00:32;;;;;;;22.33;7.78;;;2.90;99.90;;;;;;5095240;28;20031;-70
2021/04/23 00:03:01;;;;;;;21.83;8.40;;;2.90;99.90;;;;;;5093478;28;20074;-70
2021/04/23 00:05:27;;;;;;;19.95;8.75;;;2.80;99.90;;;;;;5095060;28;20028;-70
2021/04/23 00:07:53;;;;;;;18.63;7.63;;;2.80;99.90;;;;;;5093725;28;20107;-70
2021/04/23 00:10:21;;;;;;;17.48;8.15;;;2.80;99.90;;;;;;5094268;28;20016;-70
2021/04/23 00:12:47;;;;;;;18.55;7.88;;;2.70;99.90;;;;;;5094995;28;20016;-70
2021/04/23 00:15:17;;;;;;;17.20;7.38;;;2.70;99.90;;;;;;5094928;28;20415;-70
2021/04/23 00:17:42;;;;;;;20.52;8.20;;;2.50;99.90;;;;;;5095162;28;20024;-70
2021/04/23 00:20:14;;;;;;;20.08;7.57;;;2.60;99.90;;;;;;5095125;28;20049;-70
2021/04/23 00:22:40;;;;;;;20.13;8.80;;;2.50;99.90;;;;;;5095024;28;20031;-70
2021/04/23 00:25:07;;;;;;;23.80;7.90;;;2.40;99.90;;;;;;5093135;28;20044;-70
2021/04/23 00:27:33;;;;;;;24.42;8.70;;;2.40;99.90;;;;;;5093215;28;20109;-70
2021/04/23 00:30:00;;;;;;;17.58;8.30;;;2.40;99.90;;;;;;5076781;28;20078;-71
2021/04/23 00:32:58;;;;;;;20.05;8.52;;;2.40;99.90;;;;;;5094609;28;20016;-70
2021/04/23 00:35:14;;;;;;;22.45;8.93;;;2.30;99.90;;;;;;5094128;28;20024;-71
2021/04/23 00:37:46;;;;;;;21.42;8.57;;;2.30;99.90;;;;;;5094775;28;20024;-70
2021/04/23 00:40:12;;;;;;;23.35;8.30;;;2.20;99.90;;;;;;5094477;28;20373;-70
2021/04/23 00:42:38;;;;;;;25.00;8.75;;;2.20;99.90;;;;;;5094446;28;20536;-70
2021/04/23 00:45:04;;;;;;;21.33;8.35;;;2.10;99.90;;;;;;5094038;28;20123;-70
2021/04/23 00:47:30;;;;;;;21.95;8.10;;;2.10;99.90;;;;;;5094614;28;20024;-70
2021/04/23 00:49:55;;;;;;;25.20;8.88;;;2.10;99.90;;;;;;5094333;28;20028;-71
2021/04/23 00:52:21;;;;;;;17.50;8.68;;;2.10;99.90;;;;;;5093153;28;20024;-71
2021/04/23 00:54:47;;;;;;;20.98;8.27;;;2.00;99.90;;;;;;5093092;28;20031;-71
2021/04/23 00:57:12;;;;;;;24.92;8.80;;;2.00;99.90;;;;;;5094486;28;20027;-70
2021/04/23 00:59:38;;;;;;;23.50;9.75;;;1.90;99.90;;;;;;5094188;28;20080;-70
2021/04/23 01:02:09;;;;;;;19.85;8.35;;;1.90;99.90;;;;;;5094432;28;20377;-70
2021/04/23 01:04:36;;;;;;;22.48;9.05;;;1.90;99.90;;;;;;5093777;28;20031;-70
2021/04/23 01:07:02;;;;;;;21.02;8.73;;;1.90;99.90;;;;;;5092926;28;20020;-71
2021/04/23 01:09:29;;;;;;;22.08;9.32;;;1.80;99.90;;;;;;5094075;28;20077;-70
2021/04/23 01:11:58;;;;;;;26.38;10.27;;;1.80;99.90;;;;;;5094007;28;20035;-70
2021/04/23 01:14:24;;;;;;;26.83;9.80;;;1.70;99.90;;;;;;5093962;28;20075;-70
2021/04/23 01:16:50;;;;;;;23.75;10.00;;;1.70;99.90;;;;;;5093998;28;20024;-71
2021/04/23 01:19:21;;;;;;;21.85;10.35;;;1.70;99.90;;;;;;5094233;28;20028;-71
2021/04/23 01:21:48;;;;;;;21.02;9.30;;;1.70;99.90;;;;;;5092589;28;20024;-71
2021/04/23 01:24:14;;;;;;;19.15;9.50;;;1.60;99.90;;;;;;5093509;28;20038;-70
2021/04/23 01:26:43;;;;;;;30.08;10.10;;;1.60;99.90;;;;;;5094103;28;20028;-70
2021/04/23 01:29:12;;;;;;;23.73;9.85;;;1.60;99.90;;;;;;5093851;28;20016;-70
2021/04/23 01:31:40;;;;;;;24.63;10.60;;;1.60;99.90;;;;;;5094084;28;20107;-70
2021/04/23 01:34:11;;;;;;;24.67;10.18;;;1.50;99.90;;;;;;5094085;28;20016;-70
2021/04/23 01:36:37;;;;;;;30.52;11.07;;;1.50;99.90;;;;;;5075693;28;20362;-71
2021/04/23 01:39:09;;;;;;;35.67;11.88;;;1.50;99.90;;;;;;5093961;28;20024;-70
2021/04/23 01:41:35;;;;;;;27.45;12.38;;;1.50;99.90;;;;;;5093737;28;20020;-70
2021/04/23 01:44:01;;;;;;;23.73;11.57;;;1.50;99.90;;;;;;5093967;28;20377;-70
2021/04/23 01:46:26;;;;;;;30.80;12.77;;;1.50;99.90;;;;;;5075805;28;20133;-71
2021/04/23 01:48:52;;;;;;;28.13;12.18;;;1.40;99.90;;;;;;5093382;28;20027;-70
2021/04/23 01:51:18;;;;;;;26.15;13.73;;;1.40;99.90;;;;;;5093416;28;20055;-71
2021/04/23 01:53:44;;;;;;;33.47;13.25;;;1.40;99.90;;;;;;5092679;28;20035;-71
2021/04/23 01:56:10;;;;;;;27.50;13.48;;;1.40;99.90;;;;;;5093869;28;20481;-70
2021/04/23 01:58:37;;;;;;;33.70;13.68;;;1.40;99.90;;;;;;5093572;28;20028;-71
2021/04/23 02:01:05;;;;;;;29.35;13.52;;;1.40;99.90;;;;;;5093840;28;20043;-71
2021/04/23 02:03:31;;;;;;;28.52;12.77;;;1.30;99.90;;;;;;5092790;28;20124;-70
2021/04/23 02:05:57;;;;;;;30.92;13.98;;;1.30;99.90;;;;;;5092692;28;20111;-70
2021/04/23 02:08:26;;;;;;;34.50;14.88;;;1.30;99.90;;;;;;5092780;28;20024;-71
2021/04/23 02:10:57;;;;;;;33.97;16.20;;;1.30;99.90;;;;;;5093698;28;20024;-70
2021/04/23 02:13:25;;;;;;;33.42;14.75;;;1.30;99.90;;;;;;5093158;28;20111;-70
2021/04/23 02:15:52;;;;;;;30.85;14.57;;;1.20;99.90;;;;;;5075995;28;20020;-70
2021/04/23 02:18:18;;;;;;;36.33;14.02;;;1.20;99.90;;;;;;5093428;28;20024;-71
2021/04/23 02:20:44;;;;;;;29.55;14.63;;;1.30;99.90;;;;;;5093351;28;20424;-70
2021/04/23 02:23:12;;;;;;;36.53;16.20;;;1.30;99.90;;;;;;5092990;28;20024;-70
2021/04/23 02:25:38;;;;;;;33.47;13.73;;;1.30;99.90;;;;;;5092872;28;20123;-70
2021/04/23 02:28:06;;;;;;;32.65;14.95;;;1.20;99.90;;;;;;5093534;28;20024;-70
2021/04/23 02:30:37;;;;;;;31.42;14.80;;;1.30;99.90;;;;;;5091681;28;20168;-70
2021/04/23 02:33:04;;;;;;;28.25;13.82;;;1.20;99.90;;;;;;5094590;28;20103;-70
2021/04/23 02:35:30;;;;;;;34.70;16.23;;;1.20;99.90;;;;;;5096199;28;20044;-70
2021/04/23 02:37:56;;;;;;;30.20;16.27;;;1.20;99.90;;;;;;5096163;28;20035;-70
2021/04/23 02:40:25;;;;;;;31.15;15.70;;;1.20;99.90;;;;;;5095253;28;20028;-70
2021/04/23 02:42:54;;;;;;;35.75;16.40;;;1.20;99.90;;;;;;5097055;28;20111;-70
2021/04/23 02:45:23;;;;;;;34.00;16.13;;;1.10;99.90;;;;;;5096911;28;20453;-70
2021/04/23 02:47:48;;;;;;;35.15;16.83;;;1.10;99.90;;;;;;5096650;28;20398;-70
2021/04/23 02:50:16;;;;;;;34.00;17.45;;;1.00;99.90;;;;;;5096903;28;20059;-70
2021/04/23 02:52:42;;;;;;;40.13;16.77;;;1.00;99.90;;;;;;5096520;28;20016;-70
2021/04/23 02:55:10;;;;;;;35.17;16.00;;;1.00;99.90;;;;;;5096738;28;20108;-70
2021/04/23 02:57:36;;;;;;;28.30;14.98;;;1.00;99.90;;;;;;5096712;28;20020;-70
2021/04/23 03:00:06;;;;;;;34.72;15.57;;;0.90;99.90;;;;;;5096719;28;20036;-70
2021/04/23 03:02:32;;;;;;;31.77;16.65;;;0.90;99.90;;;;;;5096700;28;20024;-70
2021/04/23 03:04:57;;;;;;;37.47;15.00;;;0.90;99.90;;;;;;5095098;28;20024;-70
2021/04/23 03:07:23;;;;;;;28.77;15.13;;;0.80;99.90;;;;;;5096551;28;20024;-70
2021/04/23 03:09:49;;;;;;;34.83;15.18;;;0.80;99.90;;;;;;5095955;28;20016;-70
2021/04/23 03:12:15;;;;;;;33.05;14.57;;;0.80;99.90;;;;;;5095938;28;20020;-70
2021/04/23 03:14:41;;;;;;;31.98;15.13;;;0.80;99.90;;;;;;5094929;28;20028;-70
2021/04/23 03:17:06;;;;;;;31.70;13.88;;;0.80;99.90;;;;;;5078215;28;20025;-70
2021/04/23 03:19:32;;;;;;;38.80;14.18;;;0.70;99.90;;;;;;5094543;28;20465;-70
2021/04/23 03:21:59;;;;;;;33.42;15.48;;;0.70;99.90;;;;;;5096029;28;20469;-71
2021/04/23 03:24:24;;;;;;;35.53;13.75;;;0.70;99.90;;;;;;5094632;28;20051;-70
2021/04/23 03:26:50;;;;;;;32.92;14.93;;;0.70;99.90;;;;;;5096146;28;20020;-70
2021/04/23 03:29:18;;;;;;;36.22;14.73;;;0.60;99.90;;;;;;5096134;28;20016;-70
2021/04/23 03:31:44;;;;;;;33.55;14.45;;;0.60;99.90;;;;;;5096070;28;20457;-70
2021/04/23 03:34:11;;;;;;;36.85;14.57;;;0.60;99.90;;;;;;5096086;28;20111;-70
2021/04/23 03:36:37;;;;;;;36.22;15.50;;;0.50;99.90;;;;;;5095436;28;20020;-70
2021/04/23 03:39:05;;;;;;;35.45;17.05;;;0.60;99.90;;;;;;5095631;28;20123;-70
2021/04/23 03:41:32;;;;;;;38.80;17.75;;;0.50;99.90;;;;;;5095608;28;20027;-70
2021/04/23 03:43:59;;;;;;;44.83;21.63;;;0.50;99.90;;;;;;5095269;28;20030;-70
2021/04/23 03:46:25;;;;;;;47.67;18.85;;;0.50;99.90;;;;;;5095463;28;20016;-70
2021/04/23 03:48:51;;;;;;;38.83;18.77;;;0.50;99.90;;;;;;5095489;28;20446;-70
2021/04/23 03:51:18;;;;;;;44.95;18.50;;;0.50;99.90;;;;;;5093980;28;20044;-70
2021/04/23 03:53:45;;;;;;;47.17;19.33;;;0.50;99.90;;;;;;5095358;28;20058;-70
2021/04/23 03:56:12;;;;;;;45.13;18.73;;;0.40;99.90;;;;;;5095582;28;20115;-70
2021/04/23 03:58:39;;;;;;;56.05;19.45;;;0.40;99.90;;;;;;5095019;28;20088;-70
2021/04/23 04:01:08;;;;;;;40.38;18.17;;;0.40;99.90;;;;;;5094066;28;20024;-70
2021/04/23 04:03:36;;;;;;;42.38;18.63;;;0.40;99.90;;;;;;5095475;28;20149;-70
2021/04/23 04:06:03;;;;;;;41.78;17.98;;;0.40;99.90;;;;;;5093509;28;20392;-70
2021/04/23 04:08:28;;;;;;;40.40;19.52;;;0.40;99.90;;;;;;5094794;28;20366;-70
2021/04/23 04:10:54;;;;;;;49.08;21.05;;;0.30;99.90;;;;;;5093611;28;20042;-70
2021/04/23 04:13:20;;;;;;;41.97;18.00;;;0.30;99.90;;;;;;5095240;28;20028;-70
2021/04/23 04:15:46;;;;;;;37.28;16.70;;;0.30;99.90;;;;;;5095190;28;20028;-70
2021/04/23 04:18:12;;;;;;;51.10;19.17;;;0.30;99.90;;;;;;5094667;28;20028;-70
2021/04/23 04:20:41;;;;;;;44.17;18.75;;;0.30;99.90;;;;;;5094599;28;20031;-70
2021/04/23 04:23:09;;;;;;;37.97;18.17;;;0.30;99.90;;;;;;5095107;28;20047;-70
2021/04/23 04:25:37;;;;;;;44.92;18.02;;;0.40;99.90;;;;;;5093023;28;20382;-70
2021/04/23 04:28:05;;;;;;;43.63;17.60;;;0.40;99.90;;;;;;5093568;28;20024;-70
2021/04/23 04:30:31;;;;;;;50.85;19.88;;;0.40;99.90;;;;;;5094962;28;20038;-70
2021/04/23 04:32:57;;;;;;;41.83;16.42;;;0.40;99.90;;;;;;5095028;28;20024;-70
2021/04/23 04:35:25;;;;;;;38.17;15.90;;;0.50;99.90;;;;;;5093654;28;20072;-70
2021/04/23 04:37:51;;;;;;;43.22;16.05;;;0.50;99.90;;;;;;5095059;28;20028;-70
2021/04/23 04:40:17;;;;;;;38.30;16.02;;;0.60;99.90;;;;;;5076768;28;20028;-70
2021/04/23 04:42:43;;;;;;;38.47;17.52;;;0.70;99.90;;;;;;5093330;28;20028;-70
2021/04/23 04:45:14;;;;;;;43.58;17.15;;;0.80;99.90;;;;;;5093200;28;20465;-71
2021/04/23 04:47:40;;;;;;;39.03;16.08;;;0.90;99.90;;;;;;5094166;28;20023;-70
2021/04/23 04:50:12;;;;;;;41.00;17.73;;;1.20;99.90;;;;;;5092905;28;20021;-70
2021/04/23 04:52:38;;;;;;;42.17;17.95;;;1.60;99.90;;;;;;5094333;28;20020;-70
2021/04/23 04:55:06;;;;;;;35.58;15.30;;;2.10;99.90;;;;;;5076468;28;20024;-71
2021/04/23 04:57:33;;;;;;;29.83;15.00;;;2.50;99.90;;;;;;5076155;28;20035;-70
2021/04/23 04:59:59;;;;;;;33.95;15.68;;;2.90;99.90;;;;;;5093940;28;20070;-70
2021/04/23 05:02:24;;;;;;;33.70;15.13;;;3.10;99.90;;;;;;5092683;28;20036;-70
2021/04/23 05:04:50;;;;;;;32.38;15.23;;;3.10;99.90;;;;;;5094301;28;20028;-70
2021/04/23 05:07:15;;;;;;;35.92;17.48;;;3.10;99.90;;;;;;5094047;28;20461;-70
2021/04/23 05:09:41;;;;;;;32.85;16.52;;;3.10;99.90;;;;;;5092871;28;20521;-70
2021/04/23 05:12:07;;;;;;;30.02;15.43;;;3.30;99.90;;;;;;5093009;28;20031;-70
2021/04/23 05:14:32;;;;;;;30.70;15.27;;;3.30;99.90;;;;;;5093693;28;20023;-71
2021/04/23 05:16:58;;;;;;;28.27;14.52;;;3.40;99.90;;;;;;5093936;28;20046;-71
2021/04/23 05:19:23;;;;;;;32.13;13.70;;;3.40;99.90;;;;;;5092700;28;20495;-70
2021/04/23 05:21:49;;;;;;;25.35;14.18;;;3.60;99.90;;;;;;5093212;28;20032;-71
2021/04/23 05:24:14;;;;;;;34.95;12.65;;;3.70;99.90;;;;;;5093636;28;20431;-71
2021/04/23 05:26:40;;;;;;;33.25;12.30;;;3.90;99.90;;;;;;5093716;28;20027;-71
2021/04/23 05:29:06;;;;;;;29.98;12.85;;;4.10;99.90;;;;;;5092665;28;20040;-71
2021/04/23 05:31:32;;;;;;;29.55;12.40;;;4.50;99.90;;;;;;5094030;28;20075;-71
2021/04/23 05:33:59;;;;;;;29.40;12.05;;;4.70;99.90;;;;;;5093991;28;20115;-71
2021/04/23 05:36:24;;;;;;;24.75;11.93;;;5.10;99.90;;;;;;5093982;28;20099;-71
2021/04/23 05:38:50;;;;;;;22.42;10.38;;;5.40;99.90;;;;;;5094021;28;20050;-71
2021/04/23 05:41:16;;;;;;;28.50;11.73;;;6.30;99.90;;;;;;5092393;28;20028;-71
2021/04/23 05:43:44;;;;;;;18.98;9.95;;;7.60;99.90;;;;;;5093467;28;20028;-71
2021/04/23 05:46:09;;;;;;;30.83;10.88;;;8.40;99.90;;;;;;5093253;28;20173;-71
2021/04/23 05:48:35;;;;;;;27.15;10.93;;;9.00;99.90;;;;;;5093623;28;20485;-71
2021/04/23 05:51:01;;;;;;;23.02;10.40;;;9.40;99.90;;;;;;5093608;28;20103;-71
2021/04/23 05:53:27;;;;;;;19.25;10.07;;;10.20;99.90;;;;;;5076157;28;20115;-72
2021/04/23 05:55:52;;;;;;;21.52;10.20;;;10.00;99.90;;;;;;5093857;28;20089;-72
2021/04/23 05:58:18;;;;;;;20.77;9.88;;;10.10;99.90;;;;;;5093870;28;20039;-72
2021/04/23 06:00:43;;;;;;;22.35;9.80;;;10.30;99.90;;;;;;5093430;28;20020;-72
2021/04/23 06:03:09;;;;;;;13.27;8.52;;;10.70;99.90;;;;;;5092918;28;20377;-72
2021/04/23 06:05:37;;;;;;;14.48;8.18;;;11.20;99.90;;;;;;5093686;28;20035;-72
2021/04/23 06:08:06;;;;;;;18.48;8.40;;;11.20;99.90;;;;;;5094353;28;20381;-70
2021/04/23 06:10:32;;;;;;;19.58;7.22;;;11.70;99.90;;;;;;5096958;28;20070;-72
2021/04/23 06:12:58;;;;;;;15.60;7.18;;;12.00;99.90;;;;;;5096987;28;20025;-73
2021/04/23 06:15:25;;;;;;;18.30;7.53;;;12.00;99.90;;;;;;5097472;28;20045;-71
2021/04/23 06:17:54;;;;;;;19.08;8.40;;;12.00;99.90;;;;;;5096721;28;20038;-72
2021/04/23 06:20:21;;;;;;;18.10;7.88;;;11.90;99.90;;;;;;5095603;28;20080;-72
2021/04/23 06:22:48;;;;;;;17.25;7.60;;;11.30;99.90;;;;;;5096615;28;20024;-72
2021/04/23 06:25:16;;;;;;;21.92;7.90;;;10.80;99.90;;;;;;5096517;28;20044;-72
2021/04/23 06:27:43;;;;;;;22.38;7.60;;;10.60;99.90;;;;;;5096033;28;20016;-72
2021/04/23 06:30:13;;;;;;;17.38;7.72;;;10.30;99.90;;;;;;5094592;28;20098;-72
2021/04/23 06:32:42;;;;;;;15.80;7.22;;;10.00;99.90;;;;;;5093052;28;20024;-72
2021/04/23 06:35:09;;;;;;;19.33;7.38;;;10.30;99.90;;;;;;5079467;28;20035;-72
2021/04/23 06:37:34;;;;;;;18.23;7.22;;;11.20;99.90;;;;;;5089205;28;20024;-72
2021/04/23 06:40:00;;;;;;;16.02;6.60;;;12.30;99.90;;;;;;5095335;28;20038;-72
2021/04/23 06:42:25;;;;;;;14.80;6.57;;;12.70;99.90;;;;;;5094382;28;20028;-72
2021/04/23 06:44:51;;;;;;;15.20;6.68;;;13.70;99.90;;;;;;5087211;28;20079;-72
2021/04/23 06:47:16;;;;;;;14.63;6.38;;;14.10;99.90;;;;;;5087226;28;20021;-72
2021/04/23 06:49:42;;;;;;;14.20;6.60;;;14.30;99.90;;;;;;5091507;28;20499;-72
2021/04/23 06:52:07;;;;;;;16.10;6.50;;;14.20;99.90;;;;;;5077857;28;20029;-72
2021/04/23 06:54:33;;;;;;;18.25;6.40;;;14.20;99.90;;;;;;5088396;28;20028;-73
2021/04/23 06:56:59;;;;;;;14.02;5.80;;;14.80;99.90;;;;;;5096102;28;20041;-73
2021/04/23 06:59:24;;;;;;;14.75;6.40;;;15.20;99.90;;;;;;5083289;28;20031;-73
2021/04/23 07:01:50;;;;;;;10.68;5.57;;;14.90;99.90;;;;;;5076680;28;20367;-73
2021/04/23 07:04:15;;;;;;;12.00;5.20;;;15.00;99.30;;;;;;5076245;28;20120;-73
2021/04/23 07:06:42;;;;;;;14.48;6.28;;;14.20;99.90;;;;;;5100246;28;20047;-73
2021/04/23 07:09:08;;;;;;;12.75;5.70;;;13.10;99.90;;;;;;5089407;28;20076;-73
2021/04/23 07:11:35;;;;;;;12.35;6.10;;;13.80;99.90;;;;;;5094013;28;20035;-73
2021/04/23 07:14:00;;;;;;;17.10;7.00;;;12.30;99.90;;;;;;5089537;28;20028;-73
2021/04/23 07:16:26;;;;;;;13.90;6.32;;;12.80;99.90;;;;;;5092885;28;20031;-72
2021/04/23 07:18:51;;;;;;;13.32;6.35;;;13.60;99.90;;;;;;5092226;28;20034;-72
2021/04/23 07:21:17;;;;;;;17.30;5.90;;;14.40;99.90;;;;;;5092464;28;20117;-72
2021/04/23 07:23:43;;;;;;;14.43;6.43;;;13.30;99.90;;;;;;5074712;28;20100;-72
2021/04/23 07:26:08;;;;;;;19.42;7.55;;;12.00;99.90;;;;;;5077001;28;20032;-72
2021/04/23 07:28:34;;;;;;;16.48;6.65;;;11.20;99.90;;;;;;5094475;28;20028;-72
2021/04/23 07:31:00;;;;;;;17.60;6.20;;;10.80;99.90;;;;;;5081501;28;20613;-72
2021/04/23 07:33:25;;;;;;;13.57;5.93;;;10.40;99.90;;;;;;5080355;28;20058;-72
2021/04/23 07:35:51;;;;;;;16.63;6.60;;;10.60;99.90;;;;;;5091450;28;20031;-72
2021/04/23 07:38:17;;;;;;;15.70;6.97;;;11.00;99.90;;;;;;5090224;28;20028;-72
2021/04/23 07:40:43;;;;;;;16.58;7.05;;;10.70;99.90;;;;;;5092219;28;20047;-72
2021/04/23 07:43:09;;;;;;;20.55;7.15;;;11.70;99.90;;;;;;5093167;28;20024;-72
2021/04/23 07:45:34;;;;;;;16.60;6.50;;;12.10;99.90;;;;;;5093934;28;20123;-72
2021/04/23 07:48:00;;;;;;;18.58;6.35;;;12.40;99.90;;;;;;5094718;28;20553;-72
2021/04/23 07:50:27;;;;;;;9.57;5.50;;;11.00;99.90;;;;;;5090060;28;20037;-72
2021/04/23 07:52:54;;;;;;;16.08;6.40;;;9.80;99.90;;;;;;5090933;28;20016;-72
2021/04/23 07:55:21;;;;;;;16.83;6.93;;;9.90;99.90;;;;;;5085292;28;20064;-71
2021/04/23 07:57:48;;;;;;;22.25;7.20;;;9.20;99.90;;;;;;5087583;28;20028;-72
2021/04/23 08:00:16;;;;;;;19.50;6.90;;;9.40;99.90;;;;;;5093360;28;20031;-71
2021/04/23 08:02:42;;;;;;;16.52;7.25;;;9.20;99.90;;;;;;5094568;28;20499;-72
2021/04/23 08:05:10;;;;;;;15.48;5.95;;;9.50;99.90;;;;;;5086782;28;20028;-71
2021/04/23 08:07:36;;;;;;;15.85;5.95;;;9.70;99.90;;;;;;5074502;28;20017;-71
2021/04/23 08:10:03;;;;;;;15.18;6.07;;;9.60;99.90;;;;;;5088025;28;20035;-71
2021/04/23 08:12:28;;;;;;;14.63;6.32;;;9.30;99.90;;;;;;5091710;28;20388;-71
2021/04/23 08:14:54;;;;;;;17.65;6.85;;;9.10;99.90;;;;;;5091333;28;20028;-71
2021/04/23 08:17:20;;;;;;;14.63;6.32;;;9.10;99.90;;;;;;5093040;28;20038;-71
2021/04/23 08:19:45;;;;;;;17.77;7.05;;;9.40;99.90;;;;;;5093761;28;20036;-71
2021/04/23 08:22:11;;;;;;;15.48;6.82;;;9.40;99.90;;;;;;5091569;28;20028;-71
2021/04/23 08:24:36;;;;;;;19.40;6.95;;;9.30;99.90;;;;;;5093970;28;20056;-71
2021/04/23 08:27:02;;;;;;;18.65;6.82;;;9.20;99.90;;;;;;5093894;28;20104;-71
2021/04/23 08:29:27;;;;;;;21.48;6.72;;;8.50;99.90;;;;;;5082500;28;20024;-71
2021/04/23 08:31:53;;;;;;;21.90;6.97;;;8.50;99.90;;;;;;5093926;28;20028;-71
2021/04/23 08:34:18;;;;;;;23.67;7.47;;;8.60;99.90;;;;;;5076185;28;20113;-71
2021/04/23 08:36:44;;;;;;;17.58;6.88;;;8.40;99.90;;;;;;5087681;28;20099;-71
2021/04/23 08:39:10;;;;;;;12.85;6.47;;;8.40;99.90;;;;;;5089434;28;20032;-71
2021/04/23 08:41:38;;;;;;;16.17;7.25;;;8.80;99.90;;;;;;5080880;28;20374;-71
2021/04/23 08:44:05;;;;;;;21.77;7.35;;;9.10;99.90;;;;;;5093966;28;20025;-71
2021/04/23 08:46:32;;;;;;;16.70;7.47;;;9.20;99.90;;;;;;5082622;28;20040;-71
2021/04/23 08:48:59;;;;;;;18.55;6.82;;;9.20;99.90;;;;;;5088805;28;20053;-71
2021/04/23 08:51:27;;;;;;;16.52;6.85;;;9.20;99.90;;;;;;5091363;28;20074;-71
2021/04/23 08:53:54;;;;;;;23.13;7.47;;;9.20;99.90;;;;;;5081308;28;20065;-71
2021/04/23 08:56:20;;;;;;;12.30;6.10;;;9.20;99.90;;;;;;5092549;28;20412;-71
2021/04/23 08:58:47;;;;;;;15.13;6.65;;;8.90;99.90;;;;;;5093396;28;20384;-71
2021/04/23 09:01:13;;;;;;;15.50;5.90;;;8.90;99.90;;;;;;5109276;28;20054;-71
2021/04/23 09:03:39;;;;;;;13.20;6.05;;;9.10;99.90;;;;;;5099581;28;20030;-71
2021/04/23 09:06:11;;;;;;;13.85;6.07;;;8.80;99.90;;;;;;5101746;28;20024;-71
2021/04/23 09:14:14;;;;;;;16.00;6.70;;;8.80;99.90;;;;;;5091716;27;20855;-72
2021/04/23 09:16:52;;;;;;;17.45;6.38;;;8.70;99.90;;;;;;5094698;28;20070;-72
2021/04/23 09:19:23;;;;;;;12.98;5.93;;;9.20;99.90;;;;;;5095483;28;20045;-72
2021/04/23 09:21:57;;;;;;;14.52;6.70;;;9.20;99.90;;;;;;5089736;28;20023;-71
2021/04/23 09:24:25;;;;;;;15.73;6.20;;;9.00;99.90;;;;;;5105192;28;20024;-72
2021/04/23 09:26:52;;;;;;;20.23;5.78;;;9.20;99.90;;;;;;5093825;28;20087;-72
2021/04/23 09:29:28;;;;;;;14.18;6.30;;;9.60;99.90;;;;;;5097300;28;20073;-72
2021/04/23 09:31:54;;;;;;;12.93;6.25;;;10.00;99.90;;;;;;5089069;28;20470;-72
2021/04/23 09:34:21;;;;;;;12.40;6.57;;;10.00;99.90;;;;;;5089546;28;20466;-72
2021/04/23 09:36:47;;;;;;;12.43;6.53;;;9.90;99.90;;;;;;5088656;28;20059;-71
2021/04/23 09:39:19;;;;;;;18.25;5.85;;;10.10;99.90;;;;;;5089890;28;20086;-72
2021/04/23 09:41:58;;;;;;;16.92;6.20;;;10.40;99.90;;;;;;5089996;28;20043;-72
2021/04/23 09:44:27;;;;;;;10.45;5.97;;;10.50;99.90;;;;;;5088225;28;20020;-72
2021/04/23 09:47:14;;;;;;;10.75;5.70;;;10.40;99.90;;;;;;5087032;28;20170;-72
2021/04/23 09:49:41;;;;;;;17.42;6.47;;;10.40;99.90;;;;;;5072460;28;20017;-72
2021/04/23 09:52:09;;;;;;;14.43;6.93;;;10.60;99.90;;;;;;5088542;28;20516;-71
2021/04/23 09:54:35;;;;;;;12.77;6.35;;;11.00;99.90;;;;;;5089636;28;20016;-72
2021/04/23 09:57:11;;;;;;;18.60;7.00;;;10.70;99.90;;;;;;5089053;28;20016;-72
2021/04/23 09:59:47;;;;;;;14.73;7.63;;;10.50;99.90;;;;;;5087100;28;20111;-72
2021/04/23 10:02:15;;;;;;;16.42;7.05;;;10.90;99.90;;;;;;5087891;28;20031;-72
2021/04/23 10:04:40;;;;;;;16.55;7.45;;;10.70;99.90;;;;;;5089517;28;20035;-72
2021/04/23 10:07:17;;;;;;;15.98;6.18;;;10.80;99.90;;;;;;5088771;28;20036;-72
2021/04/23 10:10:11;;;;;;;15.10;6.68;;;11.20;99.90;;;;;;5086242;28;20024;-72
2021/04/23 10:12:54;;;;;;;13.30;6.25;;;11.10;99.90;;;;;;5085948;28;20036;-72
2021/04/23 10:15:23;;;;;;;14.23;6.03;;;11.30;99.90;;;;;;5083583;28;20032;-72
2021/04/23 10:17:51;;;;;;;13.05;5.32;;;11.50;99.90;;;;;;5087174;28;20533;-72
2021/04/23 10:20:23;;;;;;;12.50;5.60;;;11.50;99.90;;;;;;5088797;28;20444;-72
2021/04/23 10:22:50;;;;;;;12.35;6.18;;;11.70;99.90;;;;;;5089138;28;20439;-72
2021/04/23 10:25:16;;;;;;;17.90;6.35;;;10.90;99.90;;;;;;5077153;28;20078;-72
2021/04/23 10:27:43;;;;;;;14.88;5.65;;;11.10;99.90;;;;;;5074235;28;20103;-72
2021/04/23 10:30:13;;;;;;;14.38;5.93;;;11.40;99.90;;;;;;5075162;28;20123;-72
2021/04/23 10:32:39;;;;;;;15.57;5.65;;;11.20;99.90;;;;;;5074843;28;20501;-72
2021/04/23 10:35:06;;;;;;;17.17;5.95;;;11.40;99.90;;;;;;5072254;28;20020;-72
2021/04/23 10:37:32;;;;;;;12.07;5.43;;;11.60;99.90;;;;;;5072924;28;20566;-72
2021/04/23 10:39:58;;;;;;;14.38;5.18;;;12.00;99.90;;;;;;5074360;28;20024;-72
2021/04/23 10:45:24;;;;;;;14.27;5.55;;;12.10;99.90;;;;;;5109786;27;20344;-72
2021/04/23 10:47:51;;;;;;;10.77;5.20;;;12.50;99.90;;;;;;5105713;28;20019;-72
2021/04/23 10:50:20;;;;;;;14.27;5.60;;;12.90;99.90;;;;;;5108781;28;20027;-73
2021/04/23 10:52:58;;;;;;;12.90;5.85;;;12.40;99.90;;;;;;5106125;28;20024;-70
2021/04/23 10:56:00;;;;;;;14.48;5.47;;;12.70;99.90;;;;;;5108197;28;20024;-72
2021/04/23 10:58:37;;;;;;;14.65;5.30;;;13.00;99.90;;;;;;5108189;28;20023;-73
2021/04/23 11:01:16;;;;;;;13.57;5.75;;;12.80;99.90;;;;;;5109547;28;20016;-72
2021/04/23 11:03:44;;;;;;;11.50;5.03;;;12.90;99.90;;;;;;5107021;28;20031;-73
2021/04/23 11:09:11;;;;;;;13.48;5.15;;;12.90;99.90;;;;;;5101324;27;20409;-72
2021/04/23 11:11:39;;;;;;;12.60;5.60;;;12.80;99.90;;;;;;5090547;28;20032;-72
2021/04/23 11:14:25;;;;;;;8.60;5.60;;;12.90;99.90;;;;;;5089968;28;20112;-72
2021/04/23 11:16:54;;;;;;;10.02;5.22;;;12.40;99.90;;;;;;5090616;28;20032;-72
2021/04/23 11:22:05;;;;;;;15.05;5.70;;;12.20;99.90;;;;;;5111499;27;20347;-72
2021/04/23 11:24:30;;;;;;;12.90;5.47;;;13.40;99.90;;;;;;5110078;28;20024;-72
2021/04/23 11:29:56;;;;;;;11.90;5.83;;;13.50;99.90;;;;;;5109832;27;20386;-72
2021/04/23 11:32:28;;;;;;;13.93;5.90;;;13.60;98.90;;;;;;5110619;28;20453;-72
2021/04/23 11:34:58;;;;;;;13.32;5.32;;;12.80;99.90;;;;;;5111104;28;20020;-72
2021/04/23 11:37:28;;;;;;;10.77;4.47;;;13.10;99.90;;;;;;5111031;28;20020;-70
2021/04/23 11:39:57;;;;;;;11.20;5.00;;;13.80;98.80;;;;;;5090124;28;20128;-70
2021/04/23 11:42:26;;;;;;;13.23;5.70;;;14.30;99.60;;;;;;5090130;28;20029;-70
2021/04/23 11:45:10;;;;;;;10.43;5.68;;;13.90;98.70;;;;;;5106396;28;20031;-71
2021/04/23 11:47:38;;;;;;;13.82;6.07;;;13.40;99.90;;;;;;5109184;28;20032;-70
2021/04/23 11:52:51;;;;;;;12.07;5.22;;;14.30;99.90;;;;;;5105065;27;20883;-70
2021/04/23 11:55:28;;;;;;;12.50;5.77;;;13.60;99.90;;;;;;5086014;28;20036;-70
2021/04/23 11:58:11;;;;;;;15.18;6.38;;;13.50;99.90;;;;;;5087951;28;20101;-70
2021/04/23 12:00:39;;;;;;;10.87;5.50;;;13.40;99.50;;;;;;5088834;28;20028;-70
2021/04/23 12:03:06;;;;;;;14.93;6.47;;;13.70;98.60;;;;;;5089992;28;20032;-70
2021/04/23 12:05:34;;;;;;;11.60;5.93;;;14.00;98.10;;;;;;5090676;28;20069;-70
2021/04/23 12:08:03;;;;;;;13.27;6.45;;;14.50;96.40;;;;;;5106310;28;20526;-70
2021/04/23 12:10:30;;;;;;;13.85;5.88;;;14.20;95.20;;;;;;5099364;28;20055;-70
2021/04/23 12:12:56;;;;;;;10.68;6.22;;;13.70;96.70;;;;;;5089724;28;20040;-70
2021/04/23 12:15:26;;;;;;;10.32;5.15;;;14.10;97.10;;;;;;5090163;28;20063;-70
2021/04/23 12:17:53;;;;;;;9.77;5.95;;;14.30;96.70;;;;;;5088933;28;20435;-70
2021/04/23 12:20:25;;;;;;;15.13;6.57;;;14.70;95.30;;;;;;5090539;28;20020;-70
2021/04/23 12:22:51;;;;;;;14.45;6.55;;;14.60;96.80;;;;;;5089230;28;20107;-70
2021/04/23 12:25:19;;;;;;;14.27;6.50;;;14.50;94.10;;;;;;5089761;28;20017;-70
2021/04/23 12:27:45;;;;;;;10.50;6.30;;;14.00;95.80;;;;;;5089526;28;20469;-70
2021/04/23 12:30:10;;;;;;;11.63;6.50;;;13.60;97.50;;;;;;5088251;28;20043;-69
2021/04/23 12:32:36;;;;;;;11.95;6.78;;;13.50;98.00;;;;;;5089648;28;20060;-70
2021/04/23 12:35:02;;;;;;;13.35;6.68;;;14.00;99.00;;;;;;5105270;28;20052;-70
2021/04/23 12:37:28;;;;;;;15.02;7.00;;;14.10;97.70;;;;;;5105287;28;20355;-70
2021/04/23 12:39:54;;;;;;;17.48;7.28;;;14.10;96.40;;;;;;5089677;28;20020;-70
2021/04/23 12:42:26;;;;;;;11.93;6.13;;;13.80;95.40;;;;;;5089846;28;20473;-70
2021/04/23 12:44:58;;;;;;;13.10;6.57;;;13.70;97.00;;;;;;5088663;28;20035;-70
2021/04/23 12:47:24;;;;;;;13.45;6.70;;;14.00;96.30;;;;;;5077958;28;20542;-70
2021/04/23 12:49:49;;;;;;;12.00;6.40;;;13.90;95.40;;;;;;5089534;28;20103;-69
2021/04/23 12:52:18;;;;;;;12.07;6.25;;;13.50;96.90;;;;;;5087685;28;20496;-70
2021/04/23 12:54:48;;;;;;;12.70;6.05;;;13.70;97.30;;;;;;5088492;28;20021;-70
2021/04/23 12:57:27;;;;;;;16.10;6.35;;;13.90;95.70;;;;;;5088237;28;20025;-70
2021/04/23 13:00:04;;;;;;;10.13;6.50;;;13.40;95.20;;;;;;5087653;28;20031;-70